sensor_id;sensor_type;location;lat;lon;timestamp;pressure;altitude;pressure_sealevel;temperature;humidity
62025;BME280;47978;49.118;12.146;2022-11-09T00:01:39;97332.56;;;6.94;92.00
62025;BME280;47978;49.118;12.146;2022-11-09T00:04:07;97335.84;;;6.96;91.73
62025;BME280;47978;49.118;12.146;2022-11-09T00:06:34;97335.41;;;6.79;92.02
62025;BME280;47978;49.118;12.146;2022-11-09T00:09:03;97341.72;;;6.80;92.12
62025;BME280;47978;49.118;12.146;2022-11-09T00:11:34;97345.38;;;6.70;92.14
62025;BME280;47978;49.118;12.146;2022-11-09T00:14:01;97339.91;;;6.65;92.27
62025;BME280;47978;49.118;12.146;2022-11-09T00:16:28;97334.75;;;6.58;92.27
62025;BME280;47978;49.118;12.146;2022-11-09T00:18:54;97331.13;;;6.63;92.32
62025;BME280;47978;49.118;12.146;2022-11-09T00:21:23;97328.13;;;6.59;92.61
62025;BME280;47978;49.118;12.146;2022-11-09T00:23:51;97321.75;;;6.69;92.93
62025;BME280;47978;49.118;12.146;2022-11-09T00:26:18;97321.22;;;6.67;92.83
62025;BME280;47978;49.118;12.146;2022-11-09T00:28:45;97320.41;;;6.66;92.60
62025;BME280;47978;49.118;12.146;2022-11-09T00:31:14;97324.78;;;6.67;91.63
62025;BME280;47978;49.118;12.146;2022-11-09T00:33:41;97321.81;;;6.59;91.99
62025;BME280;47978;49.118;12.146;2022-11-09T00:36:10;97331.41;;;6.61;91.79
62025;BME280;47978;49.118;12.146;2022-11-09T00:38:39;97331.66;;;6.65;92.66
62025;BME280;47978;49.118;12.146;2022-11-09T00:41:07;97331.66;;;6.65;92.93
62025;BME280;47978;49.118;12.146;2022-11-09T00:43:34;97320.19;;;6.58;92.73
62025;BME280;47978;49.118;12.146;2022-11-09T00:46:00;97327.56;;;6.62;94.12
62025;BME280;47978;49.118;12.146;2022-11-09T00:48:28;97325.50;;;6.83;95.37
62025;BME280;47978;49.118;12.146;2022-11-09T00:50:55;97327.69;;;6.86;95.15
62025;BME280;47978;49.118;12.146;2022-11-09T00:53:22;97315.56;;;6.87;95.17
62025;BME280;47978;49.118;12.146;2022-11-09T00:55:58;97317.28;;;6.78;95.20
62025;BME280;47978;49.118;12.146;2022-11-09T00:58:26;97311.13;;;6.91;95.66
62025;BME280;47978;49.118;12.146;2022-11-09T01:00:54;97317.88;;;7.09;95.47
62025;BME280;47978;49.118;12.146;2022-11-09T01:03:22;97309.09;;;7.07;94.87
62025;BME280;47978;49.118;12.146;2022-11-09T01:05:49;97307.69;;;7.10;94.94
62025;BME280;47978;49.118;12.146;2022-11-09T01:08:16;97307.66;;;7.15;94.70
62025;BME280;47978;49.118;12.146;2022-11-09T01:10:44;97305.97;;;7.19;94.47
62025;BME280;47978;49.118;12.146;2022-11-09T01:13:14;97301.78;;;7.27;94.60
62025;BME280;47978;49.118;12.146;2022-11-09T01:15:43;97295.09;;;7.33;94.48
62025;BME280;47978;49.118;12.146;2022-11-09T01:18:10;97296.22;;;7.32;93.98
62025;BME280;47978;49.118;12.146;2022-11-09T01:20:38;97286.34;;;7.26;94.27
62025;BME280;47978;49.118;12.146;2022-11-09T01:23:05;97265.44;;;7.30;94.51
62025;BME280;47978;49.118;12.146;2022-11-09T01:25:31;97251.06;;;7.38;94.41
62025;BME280;47978;49.118;12.146;2022-11-09T01:27:58;97242.63;;;7.53;93.96
62025;BME280;47978;49.118;12.146;2022-11-09T01:30:26;97242.50;;;7.63;93.60
62025;BME280;47978;49.118;12.146;2022-11-09T01:32:53;97246.09;;;7.64;93.64
62025;BME280;47978;49.118;12.146;2022-11-09T01:35:19;97253.22;;;7.65;93.55
62025;BME280;47978;49.118;12.146;2022-11-09T01:37:46;97265.78;;;7.71;93.55
62025;BME280;47978;49.118;12.146;2022-11-09T01:40:12;97266.28;;;7.78;93.32
62025;BME280;47978;49.118;12.146;2022-11-09T01:42:39;97266.00;;;7.80;92.86
62025;BME280;47978;49.118;12.146;2022-11-09T01:45:28;97282.00;;;7.97;92.30
62025;BME280;47978;49.118;12.146;2022-11-09T01:48:02;97278.44;;;7.96;92.32
62025;BME280;47978;49.118;12.146;2022-11-09T01:50:38;97273.34;;;7.84;92.33
62025;BME280;47978;49.118;12.146;2022-11-09T01:53:09;97280.56;;;7.80;92.29
62025;BME280;47978;49.118;12.146;2022-11-09T01:55:37;97288.00;;;7.80;91.32
62025;BME280;47978;49.118;12.146;2022-11-09T01:58:06;97297.25;;;7.65;91.89
62025;BME280;47978;49.118;12.146;2022-11-09T02:00:37;97291.81;;;7.60;92.16
62025;BME280;47978;49.118;12.146;2022-11-09T02:03:11;97294.09;;;7.53;92.65
62025;BME280;47978;49.118;12.146;2022-11-09T02:05:40;97291.31;;;7.53;92.63
62025;BME280;47978;49.118;12.146;2022-11-09T02:08:09;97291.97;;;7.44;92.81
62025;BME280;47978;49.118;12.146;2022-11-09T02:10:40;97286.47;;;7.44;92.84
62025;BME280;47978;49.118;12.146;2022-11-09T02:13:11;97285.59;;;7.49;92.40
62025;BME280;47978;49.118;12.146;2022-11-09T02:15:40;97282.53;;;7.51;92.63
62025;BME280;47978;49.118;12.146;2022-11-09T02:18:11;97280.03;;;7.54;92.42
62025;BME280;47978;49.118;12.146;2022-11-09T02:20:46;97277.03;;;7.51;92.29
62025;BME280;47978;49.118;12.146;2022-11-09T02:23:14;97283.94;;;7.48;92.53
62025;BME280;47978;49.118;12.146;2022-11-09T02:25:44;97283.84;;;7.58;92.74
62025;BME280;47978;49.118;12.146;2022-11-09T02:28:12;97286.81;;;7.62;92.75
62025;BME280;47978;49.118;12.146;2022-11-09T02:30:40;97289.25;;;7.69;92.95
62025;BME280;47978;49.118;12.146;2022-11-09T02:33:08;97282.38;;;7.90;92.58
62025;BME280;47978;49.118;12.146;2022-11-09T02:35:34;97279.63;;;7.90;92.19
62025;BME280;47978;49.118;12.146;2022-11-09T02:38:02;97281.03;;;7.87;92.77
62025;BME280;47978;49.118;12.146;2022-11-09T02:40:32;97279.84;;;7.94;92.51
62025;BME280;47978;49.118;12.146;2022-11-09T02:43:01;97274.94;;;7.91;92.16
62025;BME280;47978;49.118;12.146;2022-11-09T02:45:28;97266.91;;;7.94;91.77
62025;BME280;47978;49.118;12.146;2022-11-09T02:47:54;97255.16;;;8.07;91.21
62025;BME280;47978;49.118;12.146;2022-11-09T02:50:21;97251.31;;;8.08;90.65
62025;BME280;47978;49.118;12.146;2022-11-09T02:52:47;97249.75;;;8.21;90.46
62025;BME280;47978;49.118;12.146;2022-11-09T02:55:15;97259.06;;;8.25;89.95
62025;BME280;47978;49.118;12.146;2022-11-09T02:57:42;97278.63;;;8.24;89.91
62025;BME280;47978;49.118;12.146;2022-11-09T03:00:10;97270.16;;;8.20;90.20
62025;BME280;47978;49.118;12.146;2022-11-09T03:02:36;97262.72;;;8.21;89.81
62025;BME280;47978;49.118;12.146;2022-11-09T03:05:04;97264.78;;;8.10;90.13
62025;BME280;47978;49.118;12.146;2022-11-09T03:07:30;97273.56;;;8.12;89.83
62025;BME280;47978;49.118;12.146;2022-11-09T03:09:57;97269.25;;;8.06;90.38
62025;BME280;47978;49.118;12.146;2022-11-09T03:12:25;97283.06;;;8.01;89.91
62025;BME280;47978;49.118;12.146;2022-11-09T03:14:51;97286.75;;;7.91;90.11
62025;BME280;47978;49.118;12.146;2022-11-09T03:17:18;97278.03;;;7.84;90.46
62025;BME280;47978;49.118;12.146;2022-11-09T03:19:44;97279.94;;;7.88;90.86
62025;BME280;47978;49.118;12.146;2022-11-09T03:22:11;97271.19;;;7.81;90.79
62025;BME280;47978;49.118;12.146;2022-11-09T03:24:37;97268.97;;;7.83;90.73
62025;BME280;47978;49.118;12.146;2022-11-09T03:27:04;97268.06;;;7.88;90.48
62025;BME280;47978;49.118;12.146;2022-11-09T03:29:32;97266.44;;;7.87;90.59
62025;BME280;47978;49.118;12.146;2022-11-09T03:31:59;97273.53;;;7.93;90.52
62025;BME280;47978;49.118;12.146;2022-11-09T03:34:25;97276.63;;;7.86;90.56
62025;BME280;47978;49.118;12.146;2022-11-09T03:36:52;97272.72;;;7.93;90.05
62025;BME280;47978;49.118;12.146;2022-11-09T03:39:19;97287.16;;;8.03;89.86
62025;BME280;47978;49.118;12.146;2022-11-09T03:41:45;97286.94;;;8.00;89.77
62025;BME280;47978;49.118;12.146;2022-11-09T03:44:12;97286.31;;;7.84;90.25
62025;BME280;47978;49.118;12.146;2022-11-09T03:46:40;97281.59;;;7.84;90.31
62025;BME280;47978;49.118;12.146;2022-11-09T03:49:06;97283.19;;;7.91;90.14
62025;BME280;47978;49.118;12.146;2022-11-09T03:51:33;97280.38;;;7.96;90.00
62025;BME280;47978;49.118;12.146;2022-11-09T03:54:00;97276.59;;;8.10;89.45
62025;BME280;47978;49.118;12.146;2022-11-09T03:56:26;97286.69;;;7.96;89.50
62025;BME280;47978;49.118;12.146;2022-11-09T03:58:53;97284.84;;;7.92;89.48
62025;BME280;47978;49.118;12.146;2022-11-09T04:01:19;97288.19;;;7.88;89.48
62025;BME280;47978;49.118;12.146;2022-11-09T04:03:47;97288.41;;;7.92;89.23
62025;BME280;47978;49.118;12.146;2022-11-09T04:06:14;97288.75;;;8.09;88.57
62025;BME280;47978;49.118;12.146;2022-11-09T04:08:40;97295.72;;;8.02;88.75
62025;BME280;47978;49.118;12.146;2022-11-09T04:11:12;97298.78;;;8.00;88.93
62025;BME280;47978;49.118;12.146;2022-11-09T04:13:39;97301.59;;;7.95;89.08
62025;BME280;47978;49.118;12.146;2022-11-09T04:16:05;97295.16;;;7.81;89.50
62025;BME280;47978;49.118;12.146;2022-11-09T04:18:32;97300.13;;;7.79;89.67
62025;BME280;47978;49.118;12.146;2022-11-09T04:21:00;97297.31;;;7.84;89.35
62025;BME280;47978;49.118;12.146;2022-11-09T04:23:26;97288.06;;;7.75;89.15
62025;BME280;47978;49.118;12.146;2022-11-09T04:25:53;97281.56;;;7.89;88.93
62025;BME280;47978;49.118;12.146;2022-11-09T04:28:20;97273.94;;;7.81;89.54
62025;BME280;47978;49.118;12.146;2022-11-09T04:30:46;97273.13;;;7.81;89.53
62025;BME280;47978;49.118;12.146;2022-11-09T04:33:13;97269.94;;;7.93;88.83
62025;BME280;47978;49.118;12.146;2022-11-09T04:35:39;97276.31;;;7.88;88.41
62025;BME280;47978;49.118;12.146;2022-11-09T04:38:10;97267.63;;;7.81;88.93
62025;BME280;47978;49.118;12.146;2022-11-09T04:40:38;97262.34;;;7.84;88.48
62025;BME280;47978;49.118;12.146;2022-11-09T04:43:07;97266.50;;;7.82;88.97
62025;BME280;47978;49.118;12.146;2022-11-09T04:45:36;97275.06;;;7.80;88.82
62025;BME280;47978;49.118;12.146;2022-11-09T04:48:04;97272.53;;;7.84;88.49
62025;BME280;47978;49.118;12.146;2022-11-09T04:50:31;97271.19;;;7.81;88.47
62025;BME280;47978;49.118;12.146;2022-11-09T04:53:08;97265.31;;;7.88;88.30
62025;BME280;47978;49.118;12.146;2022-11-09T04:55:35;97265.03;;;7.89;88.35
62025;BME280;47978;49.118;12.146;2022-11-09T04:58:02;97264.56;;;7.82;88.39
62025;BME280;47978;49.118;12.146;2022-11-09T05:00:29;97260.34;;;7.90;87.58
62025;BME280;47978;49.118;12.146;2022-11-09T05:02:58;97263.63;;;7.92;87.28
62025;BME280;47978;49.118;12.146;2022-11-09T05:05:25;97264.72;;;7.91;87.19
62025;BME280;47978;49.118;12.146;2022-11-09T05:07:52;97252.72;;;7.82;87.73
62025;BME280;47978;49.118;12.146;2022-11-09T05:10:20;97245.38;;;7.77;87.79
62025;BME280;47978;49.118;12.146;2022-11-09T05:12:46;97252.78;;;7.77;87.71
62025;BME280;47978;49.118;12.146;2022-11-09T05:15:13;97260.66;;;7.88;87.24
62025;BME280;47978;49.118;12.146;2022-11-09T05:17:40;97258.13;;;7.92;86.91
62025;BME280;47978;49.118;12.146;2022-11-09T05:20:07;97279.34;;;7.92;86.81
62025;BME280;47978;49.118;12.146;2022-11-09T05:22:38;97292.03;;;7.87;87.14
62025;BME280;47978;49.118;12.146;2022-11-09T05:25:05;97290.34;;;7.92;86.74
62025;BME280;47978;49.118;12.146;2022-11-09T05:27:33;97296.50;;;7.83;87.14
62025;BME280;47978;49.118;12.146;2022-11-09T05:30:00;97298.66;;;7.86;86.88
62025;BME280;47978;49.118;12.146;2022-11-09T05:32:27;97302.34;;;7.77;87.29
62025;BME280;47978;49.118;12.146;2022-11-09T05:34:53;97303.81;;;7.69;87.26
62025;BME280;47978;49.118;12.146;2022-11-09T05:37:20;97301.06;;;7.69;87.50
62025;BME280;47978;49.118;12.146;2022-11-09T05:39:46;97298.59;;;7.68;87.30
62025;BME280;47978;49.118;12.146;2022-11-09T05:42:13;97301.41;;;7.62;87.38
62025;BME280;47978;49.118;12.146;2022-11-09T05:44:41;97303.19;;;7.48;87.76
62025;BME280;47978;49.118;12.146;2022-11-09T05:47:08;97309.88;;;7.42;87.81
62025;BME280;47978;49.118;12.146;2022-11-09T05:49:34;97306.78;;;7.49;87.13
62025;BME280;47978;49.118;12.146;2022-11-09T05:52:01;97293.94;;;7.39;87.54
62025;BME280;47978;49.118;12.146;2022-11-09T05:54:27;97291.59;;;7.51;86.58
62025;BME280;47978;49.118;12.146;2022-11-09T05:56:54;97294.34;;;7.51;86.69
62025;BME280;47978;49.118;12.146;2022-11-09T05:59:20;97299.66;;;7.42;86.90
62025;BME280;47978;49.118;12.146;2022-11-09T06:01:48;97305.44;;;7.46;85.92
62025;BME280;47978;49.118;12.146;2022-11-09T06:04:15;97309.63;;;7.38;86.71
62025;BME280;47978;49.118;12.146;2022-11-09T06:06:42;97309.09;;;7.36;86.83
62025;BME280;47978;49.118;12.146;2022-11-09T06:09:08;97323.63;;;7.42;86.30
62025;BME280;47978;49.118;12.146;2022-11-09T06:11:35;97328.50;;;7.50;85.94
62025;BME280;47978;49.118;12.146;2022-11-09T06:14:02;97332.38;;;7.49;85.94
62025;BME280;47978;49.118;12.146;2022-11-09T06:16:28;97327.53;;;7.36;85.69
62025;BME280;47978;49.118;12.146;2022-11-09T06:18:56;97330.00;;;7.37;86.33
62025;BME280;47978;49.118;12.146;2022-11-09T06:21:23;97329.75;;;7.34;86.59
62025;BME280;47978;49.118;12.146;2022-11-09T06:23:49;97334.84;;;7.46;86.63
62025;BME280;47978;49.118;12.146;2022-11-09T06:26:16;97334.84;;;7.46;85.84
62025;BME280;47978;49.118;12.146;2022-11-09T06:28:42;97326.59;;;7.46;86.31
62025;BME280;47978;49.118;12.146;2022-11-09T06:31:13;97326.31;;;7.47;85.53
62025;BME280;47978;49.118;12.146;2022-11-09T06:33:40;97325.56;;;7.41;86.31
62025;BME280;47978;49.118;12.146;2022-11-09T06:36:08;97339.91;;;7.62;84.69
62025;BME280;47978;49.118;12.146;2022-11-09T06:38:35;97336.47;;;7.52;85.17
62025;BME280;47978;49.118;12.146;2022-11-09T06:41:02;97340.91;;;7.48;85.59
62025;BME280;47978;49.118;12.146;2022-11-09T06:43:28;97332.25;;;7.59;85.28
62025;BME280;47978;49.118;12.146;2022-11-09T06:45:55;97356.09;;;7.69;84.53
62025;BME280;47978;49.118;12.146;2022-11-09T06:48:22;97370.69;;;7.70;84.65
62025;BME280;47978;49.118;12.146;2022-11-09T06:50:49;97371.06;;;7.58;85.68
62025;BME280;47978;49.118;12.146;2022-11-09T06:53:17;97376.91;;;7.51;86.06
62025;BME280;47978;49.118;12.146;2022-11-09T06:55:44;97383.53;;;7.50;86.52
62025;BME280;47978;49.118;12.146;2022-11-09T06:58:16;97395.44;;;7.40;87.13
62025;BME280;47978;49.118;12.146;2022-11-09T07:00:43;97403.41;;;7.42;86.72
62025;BME280;47978;49.118;12.146;2022-11-09T07:03:13;97402.81;;;7.45;86.65
62025;BME280;47978;49.118;12.146;2022-11-09T07:05:40;97415.75;;;7.44;87.32
62025;BME280;47978;49.118;12.146;2022-11-09T07:08:06;97412.75;;;7.41;87.27
62025;BME280;47978;49.118;12.146;2022-11-09T07:10:35;97422.38;;;7.43;87.51
62025;BME280;47978;49.118;12.146;2022-11-09T07:13:01;97408.59;;;7.49;87.27
62025;BME280;47978;49.118;12.146;2022-11-09T07:15:28;97413.75;;;7.55;86.99
62025;BME280;47978;49.118;12.146;2022-11-09T07:17:55;97415.38;;;7.56;86.94
62025;BME280;47978;49.118;12.146;2022-11-09T07:20:22;97423.44;;;7.48;87.68
62025;BME280;47978;49.118;12.146;2022-11-09T07:22:49;97430.44;;;7.64;87.37
62025;BME280;47978;49.118;12.146;2022-11-09T07:25:16;97427.31;;;7.47;87.21
62025;BME280;47978;49.118;12.146;2022-11-09T07:27:44;97440.72;;;7.53;87.57
62025;BME280;47978;49.118;12.146;2022-11-09T07:30:11;97436.50;;;7.66;87.00
62025;BME280;47978;49.118;12.146;2022-11-09T07:32:38;97431.22;;;7.70;86.92
62025;BME280;47978;49.118;12.146;2022-11-09T07:35:25;97425.81;;;7.59;86.87
62025;BME280;47978;49.118;12.146;2022-11-09T07:37:52;97432.81;;;7.47;87.04
62025;BME280;47978;49.118;12.146;2022-11-09T07:40:19;97447.00;;;7.59;87.45
62025;BME280;47978;49.118;12.146;2022-11-09T07:42:47;97450.50;;;7.70;87.38
62025;BME280;47978;49.118;12.146;2022-11-09T07:45:13;97445.47;;;7.77;86.77
62025;BME280;47978;49.118;12.146;2022-11-09T07:47:40;97455.38;;;7.78;86.94
62025;BME280;47978;49.118;12.146;2022-11-09T07:50:07;97452.44;;;7.69;86.90
62025;BME280;47978;49.118;12.146;2022-11-09T07:52:34;97460.66;;;7.74;86.55
62025;BME280;47978;49.118;12.146;2022-11-09T07:55:00;97471.59;;;7.79;86.77
62025;BME280;47978;49.118;12.146;2022-11-09T07:57:27;97470.97;;;7.87;86.53
62025;BME280;47978;49.118;12.146;2022-11-09T07:59:55;97469.81;;;7.94;86.45
62025;BME280;47978;49.118;12.146;2022-11-09T08:02:21;97475.59;;;7.97;86.47
62025;BME280;47978;49.118;12.146;2022-11-09T08:04:48;97464.81;;;8.01;86.33
62025;BME280;47978;49.118;12.146;2022-11-09T08:07:15;97467.06;;;7.94;86.81
62025;BME280;47978;49.118;12.146;2022-11-09T08:09:41;97455.91;;;8.09;85.54
62025;BME280;47978;49.118;12.146;2022-11-09T08:12:08;97454.66;;;8.25;85.35
62025;BME280;47978;49.118;12.146;2022-11-09T08:14:34;97449.22;;;8.44;83.45
62025;BME280;47978;49.118;12.146;2022-11-09T08:17:02;97453.50;;;8.55;81.80
62025;BME280;47978;49.118;12.146;2022-11-09T08:19:29;97448.19;;;8.35;82.03
62025;BME280;47978;49.118;12.146;2022-11-09T08:21:55;97445.09;;;8.42;82.14
62025;BME280;47978;49.118;12.146;2022-11-09T08:24:22;97441.75;;;8.45;81.38
62025;BME280;47978;49.118;12.146;2022-11-09T08:26:49;97448.94;;;8.46;81.68
62025;BME280;47978;49.118;12.146;2022-11-09T08:29:15;97458.56;;;8.48;81.71
62025;BME280;47978;49.118;12.146;2022-11-09T08:31:42;97457.47;;;8.44;80.96
62025;BME280;47978;49.118;12.146;2022-11-09T08:34:11;97459.00;;;8.55;80.98
62025;BME280;47978;49.118;12.146;2022-11-09T08:36:38;97462.66;;;8.51;81.23
62025;BME280;47978;49.118;12.146;2022-11-09T08:39:05;97470.25;;;8.59;80.92
62025;BME280;47978;49.118;12.146;2022-11-09T08:41:31;97463.59;;;8.65;80.94
62025;BME280;47978;49.118;12.146;2022-11-09T08:43:58;97472.56;;;8.52;80.83
62025;BME280;47978;49.118;12.146;2022-11-09T08:46:24;97451.53;;;8.56;81.02
62025;BME280;47978;49.118;12.146;2022-11-09T08:48:51;97466.09;;;8.86;80.17
62025;BME280;47978;49.118;12.146;2022-11-09T08:51:19;97466.31;;;8.89;79.69
62025;BME280;47978;49.118;12.146;2022-11-09T08:53:46;97468.19;;;8.70;80.35
62025;BME280;47978;49.118;12.146;2022-11-09T08:56:12;97480.31;;;8.93;80.35
62025;BME280;47978;49.118;12.146;2022-11-09T08:58:39;97476.69;;;8.97;80.47
62025;BME280;47978;49.118;12.146;2022-11-09T09:01:06;97464.91;;;9.30;80.22
62025;BME280;47978;49.118;12.146;2022-11-09T09:03:40;97456.78;;;9.38;79.23
62025;BME280;47978;49.118;12.146;2022-11-09T09:06:07;97452.47;;;9.51;79.08
62025;BME280;47978;49.118;12.146;2022-11-09T09:08:35;97452.88;;;9.58;78.28
62025;BME280;47978;49.118;12.146;2022-11-09T09:11:02;97457.44;;;9.68;77.75
62025;BME280;47978;49.118;12.146;2022-11-09T09:13:29;97456.25;;;9.55;77.56
62025;BME280;47978;49.118;12.146;2022-11-09T09:15:56;97464.69;;;9.45;77.45
62025;BME280;47978;49.118;12.146;2022-11-09T09:18:22;97462.31;;;9.19;78.59
62025;BME280;47978;49.118;12.146;2022-11-09T09:20:49;97466.03;;;9.29;78.73
62025;BME280;47978;49.118;12.146;2022-11-09T09:23:16;97479.66;;;9.39;78.78
62025;BME280;47978;49.118;12.146;2022-11-09T09:25:44;97474.22;;;9.53;77.89
62025;BME280;47978;49.118;12.146;2022-11-09T09:28:10;97479.47;;;9.54;77.62
62025;BME280;47978;49.118;12.146;2022-11-09T09:30:37;97478.09;;;9.71;76.94
62025;BME280;47978;49.118;12.146;2022-11-09T09:33:04;97465.94;;;9.72;76.91
62025;BME280;47978;49.118;12.146;2022-11-09T09:35:30;97467.22;;;9.60;77.18
62025;BME280;47978;49.118;12.146;2022-11-09T09:37:57;97462.22;;;9.62;76.98
62025;BME280;47978;49.118;12.146;2022-11-09T09:40:27;97468.84;;;9.61;77.13
62025;BME280;47978;49.118;12.146;2022-11-09T09:42:57;97470.50;;;9.62;77.42
62025;BME280;47978;49.118;12.146;2022-11-09T09:45:27;97492.06;;;9.60;76.97
62025;BME280;47978;49.118;12.146;2022-11-09T09:47:58;97482.28;;;9.49;76.52
62025;BME280;47978;49.118;12.146;2022-11-09T09:50:28;97478.84;;;9.57;77.19
62025;BME280;47978;49.118;12.146;2022-11-09T09:52:59;97476.44;;;9.69;77.57
62025;BME280;47978;49.118;12.146;2022-11-09T09:55:49;97483.66;;;9.84;76.73
62025;BME280;47978;49.118;12.146;2022-11-09T09:58:23;97473.34;;;9.90;76.51
62025;BME280;47978;49.118;12.146;2022-11-09T10:00:51;97479.38;;;9.92;76.21
62025;BME280;47978;49.118;12.146;2022-11-09T10:03:20;97484.56;;;10.12;76.52
62025;BME280;47978;49.118;12.146;2022-11-09T10:05:53;97476.38;;;10.21;75.20
62025;BME280;47978;49.118;12.146;2022-11-09T10:08:31;97480.47;;;10.24;74.83
62025;BME280;47978;49.118;12.146;2022-11-09T10:11:11;97485.88;;;10.48;74.86
62025;BME280;47978;49.118;12.146;2022-11-09T10:14:12;97487.00;;;10.47;74.34
62025;BME280;47978;49.118;12.146;2022-11-09T10:16:47;97478.81;;;10.55;74.29
62025;BME280;47978;49.118;12.146;2022-11-09T10:19:27;97480.97;;;10.58;73.12
62025;BME280;47978;49.118;12.146;2022-11-09T10:22:01;97477.69;;;10.43;73.93
62025;BME280;47978;49.118;12.146;2022-11-09T10:24:39;97477.22;;;10.22;74.54
62025;BME280;47978;49.118;12.146;2022-11-09T10:27:33;97461.22;;;10.19;74.43
62025;BME280;47978;49.118;12.146;2022-11-09T10:30:07;97456.13;;;10.26;74.94
62025;BME280;47978;49.118;12.146;2022-11-09T10:32:37;97453.31;;;10.31;75.55
62025;BME280;47978;49.118;12.146;2022-11-09T10:35:12;97455.88;;;10.41;75.32
62025;BME280;47978;49.118;12.146;2022-11-09T10:37:42;97445.75;;;10.50;74.60
62025;BME280;47978;49.118;12.146;2022-11-09T10:40:20;97439.00;;;10.70;74.51
62025;BME280;47978;49.118;12.146;2022-11-09T10:42:49;97429.22;;;10.73;74.79
62025;BME280;47978;49.118;12.146;2022-11-09T10:45:25;97427.59;;;10.86;74.47
62025;BME280;47978;49.118;12.146;2022-11-09T10:47:53;97423.28;;;10.93;74.08
62025;BME280;47978;49.118;12.146;2022-11-09T10:50:25;97418.50;;;10.71;74.87
62025;BME280;47978;49.118;12.146;2022-11-09T10:53:07;97424.00;;;10.85;74.58
62025;BME280;47978;49.118;12.146;2022-11-09T10:55:33;97427.41;;;10.82;75.24
62025;BME280;47978;49.118;12.146;2022-11-09T10:58:02;97423.91;;;10.90;74.84
62025;BME280;47978;49.118;12.146;2022-11-09T11:00:55;97428.28;;;11.05;74.16
62025;BME280;47978;49.118;12.146;2022-11-09T11:03:23;97420.34;;;10.76;74.52
62025;BME280;47978;49.118;12.146;2022-11-09T11:05:55;97419.50;;;10.75;75.14
62025;BME280;47978;49.118;12.146;2022-11-09T11:08:29;97412.75;;;10.82;74.84
62025;BME280;47978;49.118;12.146;2022-11-09T11:11:16;97403.13;;;10.79;74.93
62025;BME280;47978;49.118;12.146;2022-11-09T11:14:10;97401.88;;;10.99;74.12
62025;BME280;47978;49.118;12.146;2022-11-09T11:16:40;97401.88;;;10.99;73.99
62025;BME280;47978;49.118;12.146;2022-11-09T11:19:34;97403.31;;;10.96;73.74
62025;BME280;47978;49.118;12.146;2022-11-09T11:22:19;97391.22;;;10.78;74.01
62025;BME280;47978;49.118;12.146;2022-11-09T11:24:51;97391.44;;;10.82;74.48
62025;BME280;47978;49.118;12.146;2022-11-09T11:27:22;97392.84;;;10.93;73.97
62025;BME280;47978;49.118;12.146;2022-11-09T11:29:54;97389.34;;;11.01;73.12
62025;BME280;47978;49.118;12.146;2022-11-09T11:32:23;97391.94;;;10.84;73.09
62025;BME280;47978;49.118;12.146;2022-11-09T11:34:50;97387.53;;;10.83;74.38
62025;BME280;47978;49.118;12.146;2022-11-09T11:37:35;97389.47;;;10.96;74.09
62025;BME280;47978;49.118;12.146;2022-11-09T11:40:09;97391.69;;;11.08;73.87
62025;BME280;47978;49.118;12.146;2022-11-09T11:45:41;97391.94;;;11.20;74.39
62025;BME280;47978;49.118;12.146;2022-11-09T11:48:24;97382.78;;;11.34;73.21
62025;BME280;47978;49.118;12.146;2022-11-09T11:50:57;97380.13;;;11.51;73.08
62025;BME280;47978;49.118;12.146;2022-11-09T11:53:39;97379.63;;;11.49;73.45
62025;BME280;47978;49.118;12.146;2022-11-09T11:56:19;97378.56;;;11.59;72.87
62025;BME280;47978;49.118;12.146;2022-11-09T11:59:00;97370.75;;;11.61;73.36
62025;BME280;47978;49.118;12.146;2022-11-09T12:01:41;97377.13;;;11.39;72.82
62025;BME280;47978;49.118;12.146;2022-11-09T12:04:31;97378.50;;;11.28;73.68
62025;BME280;47978;49.118;12.146;2022-11-09T12:07:10;97381.69;;;11.21;73.56
62025;BME280;47978;49.118;12.146;2022-11-09T12:09:52;97367.00;;;10.98;74.14
62025;BME280;47978;49.118;12.146;2022-11-09T12:12:30;97359.06;;;10.83;74.27
62025;BME280;47978;49.118;12.146;2022-11-09T12:15:14;97360.22;;;10.68;74.40
62025;BME280;47978;49.118;12.146;2022-11-09T12:17:49;97365.25;;;10.66;74.89
62025;BME280;47978;49.118;12.146;2022-11-09T12:20:26;97363.72;;;10.46;75.50
62025;BME280;47978;49.118;12.146;2022-11-09T12:23:10;97367.03;;;10.34;76.22
62025;BME280;47978;49.118;12.146;2022-11-09T12:25:44;97359.31;;;10.17;76.33
62025;BME280;47978;49.118;12.146;2022-11-09T12:28:22;97357.47;;;10.12;76.79
62025;BME280;47978;49.118;12.146;2022-11-09T12:31:02;97357.25;;;10.09;77.21
62025;BME280;47978;49.118;12.146;2022-11-09T12:33:38;97355.50;;;9.85;77.77
62025;BME280;47978;49.118;12.146;2022-11-09T12:36:14;97362.47;;;9.83;78.02
62025;BME280;47978;49.118;12.146;2022-11-09T12:38:51;97352.00;;;9.66;78.77
62025;BME280;47978;49.118;12.146;2022-11-09T12:41:21;97358.66;;;9.65;79.00
62025;BME280;47978;49.118;12.146;2022-11-09T12:43:53;97360.28;;;9.66;79.53
62025;BME280;47978;49.118;12.146;2022-11-09T12:46:26;97356.22;;;9.77;79.06
62025;BME280;47978;49.118;12.146;2022-11-09T12:48:58;97343.53;;;9.90;79.10
62025;BME280;47978;49.118;12.146;2022-11-09T12:51:29;97344.78;;;9.98;78.99
62025;BME280;47978;49.118;12.146;2022-11-09T12:53:56;97336.81;;;9.96;78.78
62025;BME280;47978;49.118;12.146;2022-11-09T12:56:26;97329.63;;;9.95;78.92
62025;BME280;47978;49.118;12.146;2022-11-09T12:59:18;97327.16;;;10.07;78.78
62025;BME280;47978;49.118;12.146;2022-11-09T13:01:49;97330.63;;;10.13;78.43
62025;BME280;47978;49.118;12.146;2022-11-09T13:04:19;97331.06;;;10.20;78.39
62025;BME280;47978;49.118;12.146;2022-11-09T13:07:17;97324.00;;;10.00;78.63
62025;BME280;47978;49.118;12.146;2022-11-09T13:09:52;97326.25;;;10.12;79.40
62025;BME280;47978;49.118;12.146;2022-11-09T13:12:29;97338.22;;;10.21;79.07
62025;BME280;47978;49.118;12.146;2022-11-09T13:15:11;97334.97;;;10.05;79.23